createdAt,value
2022-12-18T00:01:44.756Z,27.98
2022-12-18T00:04:22.435Z,34.57
2022-12-18T00:06:50.575Z,35.78
2022-12-18T00:09:18.316Z,31.40
2022-12-18T00:11:45.862Z,37.58
2022-12-18T00:14:14.331Z,44.30
2022-12-18T00:16:45.032Z,45.33
2022-12-18T00:19:14.191Z,38.15
2022-12-18T00:21:43.031Z,40.17
2022-12-18T00:24:11.743Z,39.58
2022-12-18T00:26:39.760Z,36.95
2022-12-18T00:29:11.078Z,43.23
2022-12-18T00:31:39.252Z,40.28
2022-12-18T00:34:07.122Z,42.30
2022-12-18T00:36:35.682Z,37.15
2022-12-18T00:39:05.519Z,43.53
2022-12-18T00:41:51.935Z,38.33
2022-12-18T00:44:19.798Z,38.47
2022-12-18T00:46:48.642Z,35.50
2022-12-18T00:49:19.973Z,37.35
2022-12-18T00:51:48.532Z,35.05
2022-12-18T00:54:16.826Z,38.03
2022-12-18T00:56:48.680Z,40.03
2022-12-18T00:59:18.654Z,38.55
2022-12-18T01:01:47.244Z,42.20
2022-12-18T01:04:15.464Z,41.47
2022-12-18T01:06:46.397Z,43.23
2022-12-18T01:09:13.831Z,42.17
2022-12-18T01:11:41.199Z,41.30
2022-12-18T01:14:09.010Z,43.47
2022-12-18T01:16:38.531Z,38.20
2022-12-18T01:19:06.196Z,36.93
2022-12-18T01:21:34.509Z,38.28
2022-12-18T01:24:05.658Z,34.97
2022-12-18T01:26:33.140Z,35.10
2022-12-18T01:29:00.791Z,35.72
2022-12-18T01:31:32.053Z,37.20
2022-12-18T01:34:02.431Z,35.97
2022-12-18T01:36:35.196Z,37.75
2022-12-18T01:39:05.539Z,34.22
2022-12-18T01:41:53.293Z,38.35
2022-12-18T01:44:56.864Z,35.50
2022-12-18T01:47:34.315Z,36.85
2022-12-18T01:50:08.884Z,36.67
2022-12-18T01:52:38.396Z,35.92
2022-12-18T01:55:06.539Z,35.75
2022-12-18T01:57:34.247Z,40.90
2022-12-18T02:00:08.262Z,35.95
2022-12-18T02:02:41.913Z,37.65
2022-12-18T02:05:11.815Z,39.25
2022-12-18T02:07:54.706Z,32.72
2022-12-18T02:10:27.150Z,32.60
2022-12-18T02:13:04.325Z,37.33
2022-12-18T02:15:39.415Z,30.65
2022-12-18T02:18:25.195Z,35.65
2022-12-18T02:21:14.203Z,37.22
2022-12-18T02:23:51.229Z,35.17
2022-12-18T02:26:38.856Z,31.83
2022-12-18T02:29:11.466Z,35.50
2022-12-18T02:31:46.831Z,40.45
2022-12-18T02:34:15.447Z,38.90
2022-12-18T02:36:44.715Z,35.90
2022-12-18T02:39:13.506Z,39.15
2022-12-18T02:41:42.731Z,35.58
2022-12-18T02:44:13.720Z,37.05
2022-12-18T02:46:45.235Z,42.90
2022-12-18T02:49:32.375Z,38.83
2022-12-18T02:52:22.707Z,39.40
2022-12-18T02:55:08.936Z,37.00
2022-12-18T02:58:02.726Z,38.85
2022-12-18T03:00:40.746Z,36.15
2022-12-18T03:03:13.021Z,35.70
2022-12-18T03:05:46.745Z,33.38
2022-12-18T03:08:28.613Z,42.75
2022-12-18T03:11:09.508Z,39.63
2022-12-18T03:13:47.486Z,39.25
2022-12-18T03:16:20.886Z,39.03
2022-12-18T03:19:19.121Z,39.30
2022-12-18T03:21:57.350Z,35.85
2022-12-18T03:24:27.434Z,36.38
2022-12-18T03:27:00.507Z,38.50
2022-12-18T03:29:33.914Z,36.47
2022-12-18T03:32:06.958Z,40.80
2022-12-18T03:34:36.170Z,30.33
2022-12-18T03:37:05.507Z,31.62
2022-12-18T03:39:33.705Z,31.35
2022-12-18T03:42:12.603Z,28.30
2022-12-18T03:44:55.581Z,32.92
2022-12-18T03:47:44.751Z,30.17
2022-12-18T03:50:18.235Z,29.20
2022-12-18T03:52:59.132Z,34.50
2022-12-18T03:55:31.497Z,26.53
2022-12-18T03:58:00.807Z,29.48
2022-12-18T04:00:32.086Z,31.42
2022-12-18T04:03:02.225Z,27.87
2022-12-18T04:05:31.268Z,29.08
2022-12-18T04:07:59.131Z,28.83
2022-12-18T04:10:28.779Z,29.10
2022-12-18T04:12:58.731Z,28.85
2022-12-18T04:15:26.322Z,27.17
2022-12-18T04:17:54.086Z,28.67
2022-12-18T04:20:22.241Z,27.10
2022-12-18T04:22:49.722Z,25.33
2022-12-18T04:25:19.413Z,23.60
2022-12-18T04:27:48.603Z,22.85
2022-12-18T04:30:16.246Z,21.02
2022-12-18T04:32:49.055Z,23.07
2022-12-18T04:35:20.519Z,23.12
2022-12-18T04:37:48.232Z,23.02
2022-12-18T04:40:16.136Z,23.25
2022-12-18T04:42:44.164Z,25.55
2022-12-18T04:45:11.888Z,20.13
2022-12-18T04:47:39.366Z,22.27
2022-12-18T04:50:07.428Z,21.80
2022-12-18T04:52:35.120Z,21.75
2022-12-18T04:55:02.568Z,22.85
2022-12-18T04:57:30.027Z,22.07
2022-12-18T04:59:57.798Z,20.08
2022-12-18T05:02:25.343Z,21.90
2022-12-18T05:04:52.960Z,24.80
2022-12-18T05:07:20.634Z,19.30
2022-12-18T05:09:48.203Z,20.97
2022-12-18T05:12:15.582Z,24.77
2022-12-18T05:14:43.246Z,24.50
2022-12-18T05:17:10.685Z,19.95
2022-12-18T05:19:38.154Z,19.60
2022-12-18T05:22:05.855Z,18.50
2022-12-18T05:24:33.377Z,20.05
2022-12-18T05:27:00.914Z,20.17
2022-12-18T05:29:28.839Z,20.67
2022-12-18T05:31:56.631Z,19.92
2022-12-18T05:34:24.041Z,14.43
2022-12-18T05:36:51.746Z,17.90
2022-12-18T05:39:19.119Z,17.40
2022-12-18T05:41:46.594Z,17.60
2022-12-18T05:44:14.615Z,17.98
2022-12-18T05:46:42.064Z,16.43
2022-12-18T05:49:10.233Z,19.73
2022-12-18T05:51:38.165Z,19.90
2022-12-18T05:54:06.581Z,16.60
2022-12-18T05:56:34.038Z,14.13
2022-12-18T05:59:01.977Z,15.30
2022-12-18T06:01:29.511Z,19.37
2022-12-18T06:03:57.334Z,16.80
2022-12-18T06:06:27.080Z,14.73
2022-12-18T06:08:55.591Z,15.50
2022-12-18T06:11:27.228Z,14.53
2022-12-18T06:13:59.093Z,21.58
2022-12-18T06:16:27.962Z,16.42
2022-12-18T06:19:02.882Z,17.73
2022-12-18T06:21:31.335Z,17.90
2022-12-18T06:23:59.825Z,18.80
2022-12-18T06:26:28.488Z,21.15
2022-12-18T06:28:56.886Z,19.98
2022-12-18T06:31:25.006Z,19.50
2022-12-18T06:33:52.738Z,21.10
2022-12-18T06:36:21.712Z,23.10
2022-12-18T06:38:49.183Z,20.83
2022-12-18T06:41:19.369Z,18.10
2022-12-18T06:43:47.156Z,19.17
2022-12-18T06:46:14.911Z,20.52
2022-12-18T06:48:42.809Z,18.63
2022-12-18T06:51:11.557Z,18.05
2022-12-18T06:53:39.346Z,20.55
2022-12-18T06:56:10.513Z,19.67
2022-12-18T06:58:39.926Z,20.58
2022-12-18T07:01:09.656Z,19.03
2022-12-18T07:03:39.036Z,18.73
2022-12-18T07:06:07.182Z,14.57
2022-12-18T07:08:35.823Z,18.85
2022-12-18T07:11:05.373Z,18.02
2022-12-18T07:13:33.041Z,20.47
2022-12-18T07:16:18.341Z,16.50
2022-12-18T07:18:48.715Z,20.83
2022-12-18T07:21:19.775Z,17.23
2022-12-18T07:23:49.214Z,23.40
2022-12-18T07:26:19.396Z,21.93
2022-12-18T07:28:46.882Z,20.67
2022-12-18T07:31:21.602Z,25.20
2022-12-18T07:33:50.717Z,23.85
2022-12-18T07:36:18.256Z,22.00
2022-12-18T07:38:48.409Z,19.20
2022-12-18T07:41:16.460Z,19.95
2022-12-18T07:43:44.502Z,21.25
2022-12-18T07:46:14.850Z,23.77
2022-12-18T07:48:46.263Z,20.85
2022-12-18T07:51:18.577Z,19.00
2022-12-18T07:53:46.862Z,20.27
2022-12-18T07:56:29.218Z,26.37
2022-12-18T07:58:58.040Z,18.42
2022-12-18T08:01:26.408Z,20.10
2022-12-18T08:03:54.265Z,23.30
2022-12-18T08:06:23.776Z,22.15
2022-12-18T08:08:53.507Z,22.75
2022-12-18T08:11:21.597Z,21.95
2022-12-18T08:13:49.473Z,30.05
2022-12-18T08:16:17.911Z,24.73
2022-12-18T08:18:45.863Z,33.22
2022-12-18T08:21:17.758Z,35.33
2022-12-18T08:23:46.115Z,35.92
2022-12-18T08:26:14.504Z,35.13
2022-12-18T08:28:41.977Z,36.97
2022-12-18T08:31:18.743Z,34.70
2022-12-18T08:33:49.823Z,35.72
2022-12-18T08:36:18.154Z,39.45
2022-12-18T08:38:46.531Z,36.55
2022-12-18T08:41:16.111Z,33.83
2022-12-18T08:44:02.837Z,39.33
2022-12-18T08:46:37.061Z,38.47
2022-12-18T08:49:04.835Z,38.13
2022-12-18T08:51:33.462Z,34.08
2022-12-18T08:54:01.125Z,36.00
2022-12-18T08:56:29.096Z,32.00
2022-12-18T08:58:57.704Z,36.08
2022-12-18T09:01:25.761Z,42.33
2022-12-18T09:03:53.352Z,35.25
2022-12-18T09:06:22.566Z,36.77
2022-12-18T09:08:49.966Z,36.65
2022-12-18T09:11:23.710Z,40.17
2022-12-18T09:13:52.618Z,39.95
2022-12-18T09:16:20.768Z,42.03
2022-12-18T09:18:48.775Z,39.80
2022-12-18T09:21:18.695Z,41.33
2022-12-18T09:23:56.315Z,39.88
2022-12-18T09:26:25.268Z,38.70
2022-12-18T09:28:52.890Z,42.67
2022-12-18T09:31:22.050Z,39.37
2022-12-18T09:33:49.890Z,44.67
2022-12-18T09:36:18.981Z,43.65
2022-12-18T09:38:46.639Z,42.97
2022-12-18T09:41:44.083Z,42.85
2022-12-18T09:44:31.036Z,38.63
2022-12-18T09:47:01.973Z,43.03
2022-12-18T09:49:32.033Z,40.40
2022-12-18T09:52:04.814Z,40.85
2022-12-18T09:54:45.317Z,35.28
2022-12-18T09:57:24.320Z,38.63
2022-12-18T10:00:05.147Z,39.55
2022-12-18T10:02:38.989Z,38.28
2022-12-18T10:05:11.464Z,40.63
2022-12-18T10:07:57.179Z,37.72
2022-12-18T10:10:56.119Z,37.47
2022-12-18T10:13:35.981Z,42.90
2022-12-18T10:16:27.861Z,38.10
2022-12-18T10:18:58.195Z,38.25
2022-12-18T10:22:04.114Z,35.28
2022-12-18T10:25:05.094Z,35.90
2022-12-18T10:27:33.054Z,39.70
2022-12-18T10:30:02.309Z,36.15
2022-12-18T10:32:31.202Z,26.77
2022-12-18T10:35:00.675Z,32.50
2022-12-18T10:37:30.617Z,29.63
2022-12-18T10:40:16.814Z,27.08
2022-12-18T10:42:48.474Z,27.27
2022-12-18T10:45:18.619Z,29.87
2022-12-18T10:47:47.968Z,40.10
2022-12-18T10:53:28.192Z,37.63
2022-12-18T10:55:58.522Z,36.28
2022-12-18T10:58:33.244Z,38.78
2022-12-18T11:01:07.071Z,41.20
2022-12-18T11:03:44.325Z,39.17
2022-12-18T11:06:22.651Z,34.67
2022-12-18T11:09:13.307Z,38.45
2022-12-18T11:11:50.143Z,40.83
2022-12-18T11:14:34.774Z,36.33
2022-12-18T11:17:25.270Z,42.00
2022-12-18T11:19:55.153Z,40.17
2022-12-18T11:22:30.762Z,34.97
2022-12-18T11:28:06.071Z,40.47
2022-12-18T11:30:36.080Z,30.63
2022-12-18T11:33:11.587Z,35.97
2022-12-18T11:35:50.421Z,36.75
2022-12-18T11:38:28.350Z,35.63
2022-12-18T11:41:04.912Z,33.92
2022-12-18T11:43:38.321Z,38.30
2022-12-18T11:46:13.490Z,30.25
2022-12-18T11:48:59.080Z,31.27
2022-12-18T11:51:34.805Z,38.03
2022-12-18T11:54:18.476Z,35.30
2022-12-18T11:56:48.077Z,35.93
2022-12-18T11:59:26.781Z,29.58
2022-12-18T12:02:01.093Z,32.03
2022-12-18T12:04:47.796Z,35.72
2022-12-18T12:07:27.553Z,32.47
2022-12-18T12:10:13.684Z,29.93
2022-12-18T12:12:56.918Z,32.42
2022-12-18T12:15:44.434Z,41.00
2022-12-18T12:18:42.788Z,34.20
2022-12-18T12:21:35.858Z,36.78
2022-12-18T12:24:25.233Z,36.13
2022-12-18T12:27:12.242Z,35.13
2022-12-18T12:30:01.514Z,32.70
2022-12-18T12:32:53.561Z,34.42
2022-12-18T12:35:39.997Z,32.88
2022-12-18T12:38:25.274Z,36.43
2022-12-18T12:41:03.186Z,52.42
2022-12-18T12:43:50.497Z,37.75
2022-12-18T12:46:20.878Z,41.30
2022-12-18T12:49:12.505Z,57.62
2022-12-18T12:51:42.998Z,42.30
2022-12-18T12:54:21.183Z,41.40
2022-12-18T12:56:56.427Z,38.95
2022-12-18T12:59:47.499Z,42.13
2022-12-18T13:02:39.625Z,38.50
2022-12-18T13:05:24.679Z,37.60
2022-12-18T13:07:58.602Z,38.45
2022-12-18T13:10:33.221Z,35.80
2022-12-18T13:13:09.209Z,36.65
2022-12-18T13:15:42.639Z,37.83
2022-12-18T13:18:10.465Z,36.97
2022-12-18T13:20:50.720Z,36.55
2022-12-18T13:23:24.389Z,41.83
2022-12-18T13:25:54.518Z,36.78
2022-12-18T13:28:34.732Z,41.60
2022-12-18T13:31:03.300Z,39.77
2022-12-18T13:33:30.735Z,38.50
2022-12-18T13:36:17.033Z,41.13
2022-12-18T13:38:45.691Z,37.90
2022-12-18T13:41:19.567Z,39.63
2022-12-18T13:43:48.598Z,37.33
2022-12-18T13:46:24.939Z,43.25
2022-12-18T13:49:36.955Z,38.42
2022-12-18T13:52:17.334Z,41.60
2022-12-18T13:54:50.286Z,38.72
2022-12-18T13:57:36.212Z,44.20
2022-12-18T14:00:33.704Z,38.70
2022-12-18T14:03:01.957Z,36.20
2022-12-18T14:05:35.990Z,39.70
2022-12-18T14:08:09.969Z,40.10
2022-12-18T14:10:48.344Z,38.23
2022-12-18T14:13:26.085Z,37.00
2022-12-18T14:15:54.887Z,40.88
2022-12-18T14:18:40.919Z,41.90
2022-12-18T14:21:19.038Z,43.50
2022-12-18T14:23:46.983Z,39.97
2022-12-18T14:26:22.099Z,46.08
2022-12-18T14:28:51.338Z,41.47
2022-12-18T14:31:26.985Z,42.35
2022-12-18T14:33:55.100Z,40.75
2022-12-18T14:36:25.686Z,39.40
2022-12-18T14:38:57.585Z,42.67
2022-12-18T14:41:25.956Z,33.08
2022-12-18T14:43:55.015Z,38.20
2022-12-18T14:46:28.464Z,37.75
2022-12-18T14:48:57.244Z,40.53
2022-12-18T14:51:27.118Z,32.83
2022-12-18T14:53:57.182Z,33.55
2022-12-18T14:56:31.116Z,43.53
2022-12-18T14:59:16.933Z,40.53
2022-12-18T15:01:48.760Z,32.50
2022-12-18T15:04:37.683Z,35.45
2022-12-18T15:07:14.898Z,36.78
2022-12-18T15:09:44.068Z,35.55
2022-12-18T15:12:37.506Z,40.10
2022-12-18T15:15:06.255Z,38.00
2022-12-18T15:17:33.971Z,34.60
2022-12-18T15:20:03.695Z,34.90
2022-12-18T15:22:35.111Z,41.53
2022-12-18T15:25:05.402Z,38.30
2022-12-18T15:27:38.993Z,38.70
2022-12-18T15:30:09.728Z,35.13
2022-12-18T15:32:38.236Z,35.58
2022-12-18T15:35:15.540Z,29.60
2022-12-18T15:37:43.760Z,29.73
2022-12-18T15:40:16.426Z,30.30
2022-12-18T15:43:04.478Z,27.48
2022-12-18T15:45:31.991Z,28.83
2022-12-18T15:48:00.404Z,28.52
2022-12-18T15:50:28.028Z,30.75
2022-12-18T15:52:56.571Z,30.20
2022-12-18T15:55:43.898Z,35.55
2022-12-18T15:58:12.858Z,31.15
2022-12-18T16:00:42.284Z,30.65
2022-12-18T16:03:10.789Z,32.03
2022-12-18T16:05:38.632Z,30.13
2022-12-18T16:08:06.196Z,28.65
2022-12-18T16:10:34.051Z,28.25
2022-12-18T16:13:01.513Z,27.73
2022-12-18T16:15:29.045Z,26.02
2022-12-18T16:17:56.823Z,30.80
2022-12-18T16:20:24.415Z,24.40
2022-12-18T16:22:52.136Z,30.65
2022-12-18T16:25:29.596Z,29.58
2022-12-18T16:27:57.283Z,29.75
2022-12-18T16:30:33.061Z,29.40
2022-12-18T16:33:07.497Z,30.17
2022-12-18T16:35:38.025Z,29.08
2022-12-18T16:38:05.614Z,30.15
2022-12-18T16:40:33.909Z,33.65
2022-12-18T16:43:01.679Z,28.07
2022-12-18T16:45:34.098Z,29.33
2022-12-18T16:48:01.900Z,30.95
2022-12-18T16:50:29.351Z,29.48
2022-12-18T16:52:56.971Z,29.70
2022-12-18T16:55:24.751Z,31.77
2022-12-18T16:57:52.602Z,31.30
2022-12-18T17:00:20.235Z,36.30
2022-12-18T17:02:48.471Z,34.75
2022-12-18T17:05:16.119Z,34.42
2022-12-18T17:07:46.649Z,34.70
2022-12-18T17:10:14.560Z,34.63
2022-12-18T17:12:42.900Z,41.22
2022-12-18T17:15:11.566Z,38.88
2022-12-18T17:17:39.317Z,37.88
2022-12-18T17:20:07.819Z,34.53
2022-12-18T17:22:35.414Z,34.40
2022-12-18T17:25:03.570Z,41.53
2022-12-18T17:27:31.043Z,42.88
2022-12-18T17:29:58.514Z,43.15
2022-12-18T17:32:26.241Z,34.50
2022-12-18T17:34:53.635Z,34.90
2022-12-18T17:37:21.248Z,36.53
2022-12-18T17:39:49.527Z,39.67
2022-12-18T17:42:17.037Z,38.08
2022-12-18T17:44:45.077Z,35.10
2022-12-18T17:47:13.835Z,35.47
2022-12-18T17:49:41.456Z,35.72
2022-12-18T17:52:09.348Z,36.92
2022-12-18T17:54:39.852Z,40.65
2022-12-18T17:57:07.799Z,36.93
2022-12-18T17:59:35.316Z,38.90
2022-12-18T18:02:03.325Z,39.38
2022-12-18T18:04:31.195Z,39.05
2022-12-18T18:06:58.741Z,38.47
2022-12-18T18:09:26.332Z,38.37
2022-12-18T18:12:13.014Z,44.78
2022-12-18T18:14:40.782Z,36.42
2022-12-18T18:17:08.823Z,42.08
2022-12-18T18:19:36.520Z,35.95
2022-12-18T18:22:04.242Z,42.03
2022-12-18T18:24:33.258Z,43.97
2022-12-18T18:27:00.777Z,41.08
2022-12-18T18:29:32.028Z,38.42
2022-12-18T18:32:00.156Z,39.50
2022-12-18T18:34:30.423Z,43.00
2022-12-18T18:36:57.928Z,47.00
2022-12-18T18:39:25.941Z,44.65
2022-12-18T18:41:53.648Z,40.67
2022-12-18T18:44:25.982Z,38.83
2022-12-18T18:46:58.354Z,38.17
2022-12-18T18:49:27.685Z,35.67
2022-12-18T18:51:57.356Z,34.50
2022-12-18T18:54:25.869Z,36.20
2022-12-18T18:57:19.381Z,34.72
2022-12-18T18:59:41.667Z,30.93
2022-12-18T19:02:12.765Z,30.92
2022-12-18T19:04:45.682Z,28.38
2022-12-18T19:07:26.152Z,29.73
2022-12-18T19:10:04.388Z,24.37
2022-12-18T19:12:53.261Z,20.73
2022-12-18T19:15:22.298Z,24.02
2022-12-18T19:17:50.552Z,22.20
2022-12-18T19:20:18.859Z,21.52
2022-12-18T19:22:55.155Z,20.92
2022-12-18T19:25:28.368Z,23.43
2022-12-18T19:28:09.981Z,20.42
2022-12-18T19:30:50.293Z,23.00
2022-12-18T19:33:41.850Z,29.37
2022-12-18T19:36:21.811Z,26.50
2022-12-18T19:38:50.996Z,25.47
2022-12-18T19:41:20.496Z,26.90
2022-12-18T19:43:49.249Z,29.55
2022-12-18T19:46:19.281Z,33.70
2022-12-18T19:48:47.678Z,30.37
2022-12-18T19:51:18.214Z,32.10
2022-12-18T19:53:46.186Z,29.75
2022-12-18T19:56:16.134Z,28.33
2022-12-18T19:58:45.123Z,34.00
2022-12-18T20:01:17.001Z,35.28
2022-12-18T20:03:51.144Z,32.07
2022-12-18T20:06:25.438Z,31.80
2022-12-18T20:08:59.443Z,38.92
2022-12-18T20:11:30.145Z,32.42
2022-12-18T20:13:58.307Z,34.13
2022-12-18T20:16:25.912Z,33.57
2022-12-18T20:18:54.429Z,33.78
2022-12-18T20:21:22.170Z,28.62
2022-12-18T20:23:50.395Z,32.97
2022-12-18T20:26:17.918Z,31.27
2022-12-18T20:28:45.784Z,29.40
2022-12-18T20:31:14.128Z,31.00
2022-12-18T20:33:42.587Z,31.20
2022-12-18T20:36:15.355Z,29.55
2022-12-18T20:38:44.016Z,30.80
2022-12-18T20:41:16.565Z,25.03
2022-12-18T20:43:45.033Z,32.45
2022-12-18T20:46:14.938Z,32.85
2022-12-18T20:48:43.310Z,29.98
2022-12-18T20:51:13.333Z,38.72
2022-12-18T20:53:41.981Z,34.07
2022-12-18T20:56:21.256Z,31.58
2022-12-18T20:58:50.448Z,33.97
2022-12-18T21:01:23.419Z,35.20
2022-12-18T21:03:51.886Z,31.65
2022-12-18T21:06:21.616Z,36.27
2022-12-18T21:08:49.662Z,32.22
2022-12-18T21:11:39.334Z,27.05
2022-12-18T21:14:11.950Z,30.70
2022-12-18T21:16:40.263Z,33.55
2022-12-18T21:19:07.844Z,33.53
2022-12-18T21:21:38.738Z,37.15
2022-12-18T21:24:07.739Z,35.92
2022-12-18T21:26:38.136Z,30.42
2022-12-18T21:29:11.979Z,31.77
2022-12-18T21:31:39.660Z,35.23
2022-12-18T21:34:08.181Z,34.05
2022-12-18T21:36:35.968Z,37.63
2022-12-18T21:39:03.497Z,40.85
2022-12-18T21:41:49.780Z,35.20
2022-12-18T21:44:20.271Z,38.80
2022-12-18T21:46:54.874Z,43.30
2022-12-18T21:49:24.927Z,40.83
2022-12-18T21:51:54.790Z,46.20
2022-12-18T21:54:22.391Z,49.28
2022-12-18T21:56:52.050Z,49.23
2022-12-18T21:59:41.669Z,43.85
2022-12-18T22:02:17.328Z,47.20
2022-12-18T22:04:46.072Z,40.85
2022-12-18T22:07:15.077Z,45.47
2022-12-18T22:09:42.964Z,53.63
2022-12-18T22:12:12.767Z,46.15
2022-12-18T22:14:40.247Z,47.15
2022-12-18T22:17:07.892Z,43.70
2022-12-18T22:19:42.708Z,44.90
2022-12-18T22:22:10.544Z,38.73
2022-12-18T22:24:38.319Z,40.38
2022-12-18T22:27:05.827Z,43.03
2022-12-18T22:29:51.794Z,37.95
2022-12-18T22:32:30.972Z,40.67
2022-12-18T22:35:05.801Z,34.25
2022-12-18T22:37:35.987Z,37.40
2022-12-18T22:40:07.368Z,35.03
2022-12-18T22:42:35.123Z,34.92
2022-12-18T22:45:02.947Z,41.80
2022-12-18T22:47:30.890Z,37.63
2022-12-18T22:49:58.546Z,34.95
2022-12-18T22:52:26.291Z,33.97
2022-12-18T22:54:54.359Z,41.83
2022-12-18T22:57:23.106Z,37.30
2022-12-18T22:59:51.548Z,36.47
2022-12-18T23:02:19.694Z,34.65
2022-12-18T23:04:47.728Z,34.92
2022-12-18T23:07:16.331Z,41.80
2022-12-18T23:09:44.864Z,45.77
2022-12-18T23:12:17.208Z,35.35
2022-12-18T23:14:45.510Z,34.90
2022-12-18T23:17:13.192Z,37.92
2022-12-18T23:19:47.143Z,41.60
2022-12-18T23:22:17.456Z,36.63
2022-12-18T23:24:44.877Z,42.30
2022-12-18T23:27:12.418Z,34.28
2022-12-18T23:29:40.848Z,31.00
2022-12-18T23:32:08.374Z,39.88
2022-12-18T23:34:35.812Z,35.53
2022-12-18T23:37:03.949Z,31.75
2022-12-18T23:39:31.719Z,37.67
2022-12-18T23:41:59.217Z,39.22
2022-12-18T23:44:26.914Z,37.00
2022-12-18T23:46:55.168Z,41.67
2022-12-18T23:49:23.429Z,36.00
2022-12-18T23:51:54.095Z,35.75
2022-12-18T23:54:29.325Z,36.58
2022-12-18T23:57:01.662Z,40.53
2022-12-18T23:59:29.141Z,31.20
